sensor_id;sensor_type;location;lat;lon;timestamp;pressure;altitude;pressure_sealevel;temperature;humidity
11676;BME280;5894;42.768;23.404;2022-09-20T00:00:16;95730.59;;;12.37;100.00
11676;BME280;5894;42.768;23.404;2022-09-20T00:02:43;95731.34;;;12.29;100.00
11676;BME280;5894;42.768;23.404;2022-09-20T00:05:10;95725.75;;;12.30;100.00
11676;BME280;5894;42.768;23.404;2022-09-20T00:07:37;95734.16;;;12.32;100.00
11676;BME280;5894;42.768;23.404;2022-09-20T00:10:04;95730.91;;;12.35;100.00
11676;BME280;5894;42.768;23.404;2022-09-20T00:12:32;95733.69;;;12.30;100.00
11676;BME280;5894;42.768;23.404;2022-09-20T00:14:59;95739.59;;;12.27;100.00
11676;BME280;5894;42.768;23.404;2022-09-20T00:17:26;95737.09;;;12.22;100.00
11676;BME280;5894;42.768;23.404;2022-09-20T00:19:53;95747.19;;;12.20;100.00
11676;BME280;5894;42.768;23.404;2022-09-20T00:22:20;95746.41;;;12.20;100.00
11676;BME280;5894;42.768;23.404;2022-09-20T00:24:47;95742.19;;;12.19;100.00
11676;BME280;5894;42.768;23.404;2022-09-20T00:27:13;95746.09;;;12.21;100.00
11676;BME280;5894;42.768;23.404;2022-09-20T00:29:41;95737.41;;;12.21;100.00
11676;BME280;5894;42.768;23.404;2022-09-20T00:32:08;95719.66;;;12.12;100.00
11676;BME280;5894;42.768;23.404;2022-09-20T00:34:35;95737.22;;;12.17;100.00
11676;BME280;5894;42.768;23.404;2022-09-20T00:37:19;95731.78;;;12.13;100.00
11676;BME280;5894;42.768;23.404;2022-09-20T00:39:46;95714.28;;;11.95;100.00
11676;BME280;5894;42.768;23.404;2022-09-20T00:42:13;95737.03;;;12.05;100.00
11676;BME280;5894;42.768;23.404;2022-09-20T00:44:55;95730.63;;;11.97;100.00
11676;BME280;5894;42.768;23.404;2022-09-20T00:47:30;95733.13;;;11.94;100.00
11676;BME280;5894;42.768;23.404;2022-09-20T01:09:37;95721.59;;;11.90;100.00
11676;BME280;5894;42.768;23.404;2022-09-20T01:12:17;95727.13;;;11.80;100.00
11676;BME280;5894;42.768;23.404;2022-09-20T01:14:46;95725.03;;;11.68;100.00
11676;BME280;5894;42.768;23.404;2022-09-20T01:17:15;95723.09;;;11.51;100.00
11676;BME280;5894;42.768;23.404;2022-09-20T01:19:48;95733.00;;;11.46;100.00
11676;BME280;5894;42.768;23.404;2022-09-20T01:22:22;95723.75;;;11.34;100.00
11676;BME280;5894;42.768;23.404;2022-09-20T01:24:56;95720.88;;;11.22;100.00
11676;BME280;5894;42.768;23.404;2022-09-20T01:27:39;95724.25;;;11.14;100.00
11676;BME280;5894;42.768;23.404;2022-09-20T01:30:07;95732.00;;;11.11;100.00
11676;BME280;5894;42.768;23.404;2022-09-20T01:32:49;95728.69;;;11.05;100.00
11676;BME280;5894;42.768;23.404;2022-09-20T01:35:19;95719.63;;;10.97;100.00
11676;BME280;5894;42.768;23.404;2022-09-20T01:38:03;95717.59;;;10.94;100.00
11676;BME280;5894;42.768;23.404;2022-09-20T01:40:38;95715.84;;;10.90;100.00
11676;BME280;5894;42.768;23.404;2022-09-20T01:43:16;95688.19;;;10.65;100.00
11676;BME280;5894;42.768;23.404;2022-09-20T01:45:47;95713.75;;;10.78;100.00
11676;BME280;5894;42.768;23.404;2022-09-20T01:48:24;95714.19;;;10.80;100.00
11676;BME280;5894;42.768;23.404;2022-09-20T01:51:15;95707.19;;;10.76;100.00
11676;BME280;5894;42.768;23.404;2022-09-20T01:54:09;95720.09;;;10.77;100.00
11676;BME280;5894;42.768;23.404;2022-09-20T01:56:55;95728.88;;;10.73;100.00
11676;BME280;5894;42.768;23.404;2022-09-20T01:59:51;95731.22;;;10.74;100.00
11676;BME280;5894;42.768;23.404;2022-09-20T02:02:40;95716.28;;;10.70;100.00
11676;BME280;5894;42.768;23.404;2022-09-20T02:05:39;95728.59;;;10.74;100.00
11676;BME280;5894;42.768;23.404;2022-09-20T02:08:39;95736.22;;;10.76;100.00
11676;BME280;5894;42.768;23.404;2022-09-20T02:11:13;95728.41;;;10.71;100.00
11676;BME280;5894;42.768;23.404;2022-09-20T02:14:03;95722.97;;;10.67;100.00
11676;BME280;5894;42.768;23.404;2022-09-20T02:16:50;95720.91;;;10.64;100.00
11676;BME280;5894;42.768;23.404;2022-09-20T02:22:30;95704.09;;;10.60;100.00
11676;BME280;5894;42.768;23.404;2022-09-20T02:25:14;95712.22;;;10.63;100.00
11676;BME280;5894;42.768;23.404;2022-09-20T02:27:53;95715.63;;;10.64;100.00
11676;BME280;5894;42.768;23.404;2022-09-20T02:30:35;95714.06;;;10.63;100.00
11676;BME280;5894;42.768;23.404;2022-09-20T02:33:19;95723.34;;;10.60;100.00
11676;BME280;5894;42.768;23.404;2022-09-20T02:35:58;95731.25;;;10.60;100.00
11676;BME280;5894;42.768;23.404;2022-09-20T02:38:39;95729.53;;;10.56;100.00
11676;BME280;5894;42.768;23.404;2022-09-20T02:41:45;95734.19;;;10.59;100.00
11676;BME280;5894;42.768;23.404;2022-09-20T02:44:23;95727.47;;;10.53;100.00
11676;BME280;5894;42.768;23.404;2022-09-20T02:46:57;95729.34;;;10.52;100.00
11676;BME280;5894;42.768;23.404;2022-09-20T02:49:35;95725.81;;;10.57;100.00
11676;BME280;5894;42.768;23.404;2022-09-20T02:52:12;95734.03;;;10.55;100.00
11676;BME280;5894;42.768;23.404;2022-09-20T02:54:49;95737.44;;;10.56;100.00
11676;BME280;5894;42.768;23.404;2022-09-20T02:57:25;95736.38;;;10.43;100.00
11676;BME280;5894;42.768;23.404;2022-09-20T03:00:00;95738.44;;;10.46;100.00
11676;BME280;5894;42.768;23.404;2022-09-20T03:02:35;95733.75;;;10.43;100.00
11676;BME280;5894;42.768;23.404;2022-09-20T03:05:17;95733.38;;;10.36;100.00
11676;BME280;5894;42.768;23.404;2022-09-20T03:07:57;95728.19;;;10.45;100.00
11676;BME280;5894;42.768;23.404;2022-09-20T03:10:33;95736.78;;;10.37;100.00
11676;BME280;5894;42.768;23.404;2022-09-20T03:13:12;95730.94;;;10.26;100.00
11676;BME280;5894;42.768;23.404;2022-09-20T03:15:54;95737.78;;;10.27;100.00
11676;BME280;5894;42.768;23.404;2022-09-20T03:18:32;95748.41;;;10.36;100.00
11676;BME280;5894;42.768;23.404;2022-09-20T03:21:11;95753.47;;;10.32;100.00
11676;BME280;5894;42.768;23.404;2022-09-20T03:23:52;95756.53;;;10.25;100.00
11676;BME280;5894;42.768;23.404;2022-09-20T03:26:30;95757.09;;;10.22;100.00
11676;BME280;5894;42.768;23.404;2022-09-20T03:29:03;95755.44;;;10.26;100.00
11676;BME280;5894;42.768;23.404;2022-09-20T03:31:47;95759.94;;;10.26;100.00
11676;BME280;5894;42.768;23.404;2022-09-20T03:34:32;95759.25;;;10.20;100.00
11676;BME280;5894;42.768;23.404;2022-09-20T03:37:14;95758.25;;;10.16;100.00
11676;BME280;5894;42.768;23.404;2022-09-20T03:42:50;95753.97;;;10.07;100.00
11676;BME280;5894;42.768;23.404;2022-09-20T03:45:33;95769.50;;;10.22;100.00
11676;BME280;5894;42.768;23.404;2022-09-20T03:48:26;95775.91;;;10.16;100.00
11676;BME280;5894;42.768;23.404;2022-09-20T03:51:03;95771.72;;;10.15;100.00
11676;BME280;5894;42.768;23.404;2022-09-20T03:53:51;95775.22;;;9.97;100.00
11676;BME280;5894;42.768;23.404;2022-09-20T03:56:50;95777.66;;;9.93;100.00
11676;BME280;5894;42.768;23.404;2022-09-20T03:59:38;95777.94;;;9.91;100.00
11676;BME280;5894;42.768;23.404;2022-09-20T04:02:31;95776.38;;;9.90;100.00
11676;BME280;5894;42.768;23.404;2022-09-20T04:05:01;95778.91;;;9.82;100.00
11676;BME280;5894;42.768;23.404;2022-09-20T04:07:37;95773.44;;;9.78;100.00
11676;BME280;5894;42.768;23.404;2022-09-20T04:10:15;95782.78;;;9.71;100.00
11676;BME280;5894;42.768;23.404;2022-09-20T04:12:58;95784.63;;;9.70;100.00
11676;BME280;5894;42.768;23.404;2022-09-20T04:15:34;95788.66;;;9.81;100.00
11676;BME280;5894;42.768;23.404;2022-09-20T04:18:10;95791.88;;;9.78;100.00
11676;BME280;5894;42.768;23.404;2022-09-20T04:20:45;95798.50;;;9.76;100.00
11676;BME280;5894;42.768;23.404;2022-09-20T04:23:24;95796.84;;;9.80;100.00
11676;BME280;5894;42.768;23.404;2022-09-20T04:25:59;95795.28;;;9.79;100.00
11676;BME280;5894;42.768;23.404;2022-09-20T04:28:33;95792.94;;;9.77;100.00
11676;BME280;5894;42.768;23.404;2022-09-20T04:31:08;95796.56;;;9.81;100.00
11676;BME280;5894;42.768;23.404;2022-09-20T04:33:42;95802.13;;;9.80;100.00
11676;BME280;5894;42.768;23.404;2022-09-20T04:36:35;95803.19;;;9.79;100.00
11676;BME280;5894;42.768;23.404;2022-09-20T04:39:10;95791.97;;;9.73;100.00
11676;BME280;5894;42.768;23.404;2022-09-20T04:48:45;95803.69;;;9.81;100.00
11676;BME280;5894;42.768;23.404;2022-09-20T04:51:52;95791.19;;;9.73;100.00
11676;BME280;5894;42.768;23.404;2022-09-20T04:54:49;95803.06;;;9.70;100.00
11676;BME280;5894;42.768;23.404;2022-09-20T05:00:19;95807.66;;;9.78;100.00
11676;BME280;5894;42.768;23.404;2022-09-20T05:03:20;95811.69;;;9.76;100.00
11676;BME280;5894;42.768;23.404;2022-09-20T05:06:09;95816.94;;;9.76;100.00
11676;BME280;5894;42.768;23.404;2022-09-20T05:12:24;95818.13;;;9.83;100.00
11676;BME280;5894;42.768;23.404;2022-09-20T05:15:22;95817.63;;;9.81;100.00
11676;BME280;5894;42.768;23.404;2022-09-20T05:18:09;95818.97;;;9.79;100.00
11676;BME280;5894;42.768;23.404;2022-09-20T05:23:44;95824.06;;;9.75;100.00
11676;BME280;5894;42.768;23.404;2022-09-20T05:26:17;95831.97;;;9.75;100.00
11676;BME280;5894;42.768;23.404;2022-09-20T05:28:55;95832.66;;;9.81;100.00
11676;BME280;5894;42.768;23.404;2022-09-20T05:31:31;95832.66;;;9.81;100.00
11676;BME280;5894;42.768;23.404;2022-09-20T05:34:10;95813.16;;;9.82;100.00
11676;BME280;5894;42.768;23.404;2022-09-20T05:36:48;95822.53;;;10.02;100.00
11676;BME280;5894;42.768;23.404;2022-09-20T05:39:31;95824.91;;;10.03;100.00
11676;BME280;5894;42.768;23.404;2022-09-20T05:42:06;95826.63;;;10.08;100.00
11676;BME280;5894;42.768;23.404;2022-09-20T05:44:52;95824.50;;;10.10;100.00
11676;BME280;5894;42.768;23.404;2022-09-20T05:47:26;95788.75;;;9.90;100.00
11676;BME280;5894;42.768;23.404;2022-09-20T05:50:08;95821.56;;;10.11;100.00
11676;BME280;5894;42.768;23.404;2022-09-20T05:52:47;95826.06;;;10.11;100.00
11676;BME280;5894;42.768;23.404;2022-09-20T05:55:27;95781.25;;;9.83;100.00
11676;BME280;5894;42.768;23.404;2022-09-20T05:58:04;95824.72;;;10.13;100.00
11676;BME280;5894;42.768;23.404;2022-09-20T06:00:38;95830.47;;;10.15;100.00
11676;BME280;5894;42.768;23.404;2022-09-20T06:03:14;95816.78;;;10.00;100.00
11676;BME280;5894;42.768;23.404;2022-09-20T06:05:52;95822.84;;;10.14;100.00
11676;BME280;5894;42.768;23.404;2022-09-20T06:08:34;95825.69;;;10.17;100.00
11676;BME280;5894;42.768;23.404;2022-09-20T06:11:20;95786.63;;;9.92;100.00
11676;BME280;5894;42.768;23.404;2022-09-20T06:14:03;95827.41;;;10.27;100.00
11676;BME280;5894;42.768;23.404;2022-09-20T06:16:39;95828.94;;;10.28;100.00
11676;BME280;5894;42.768;23.404;2022-09-20T06:19:17;95827.06;;;10.28;100.00
11676;BME280;5894;42.768;23.404;2022-09-20T06:21:50;95821.72;;;10.20;100.00
11676;BME280;5894;42.768;23.404;2022-09-20T06:24:25;95822.31;;;10.30;100.00
11676;BME280;5894;42.768;23.404;2022-09-20T06:26:58;95825.34;;;10.38;100.00
11676;BME280;5894;42.768;23.404;2022-09-20T06:29:29;95833.84;;;10.35;100.00
11676;BME280;5894;42.768;23.404;2022-09-20T06:31:57;95833.34;;;10.46;100.00
11676;BME280;5894;42.768;23.404;2022-09-20T06:34:25;95827.59;;;10.58;100.00
11676;BME280;5894;42.768;23.404;2022-09-20T06:36:59;95832.47;;;10.64;100.00
11676;BME280;5894;42.768;23.404;2022-09-20T06:39:53;95831.88;;;10.68;100.00
11676;BME280;5894;42.768;23.404;2022-09-20T06:43:13;95827.19;;;10.78;100.00
11676;BME280;5894;42.768;23.404;2022-09-20T06:45:40;95824.91;;;10.85;100.00
11676;BME280;5894;42.768;23.404;2022-09-20T06:48:08;95823.25;;;10.89;100.00
11676;BME280;5894;42.768;23.404;2022-09-20T06:50:37;95824.78;;;10.90;100.00
11676;BME280;5894;42.768;23.404;2022-09-20T06:53:04;95814.22;;;10.90;100.00
11676;BME280;5894;42.768;23.404;2022-09-20T06:55:34;95816.56;;;11.06;100.00
11676;BME280;5894;42.768;23.404;2022-09-20T06:58:05;95826.41;;;11.14;100.00
11676;BME280;5894;42.768;23.404;2022-09-20T07:00:35;95829.88;;;11.23;100.00
11676;BME280;5894;42.768;23.404;2022-09-20T07:03:04;95832.72;;;11.26;100.00
11676;BME280;5894;42.768;23.404;2022-09-20T07:05:31;95838.19;;;11.30;100.00
11676;BME280;5894;42.768;23.404;2022-09-20T07:07:58;95739.94;;;10.75;100.00
11676;BME280;5894;42.768;23.404;2022-09-20T07:10:26;95838.44;;;11.42;100.00
11676;BME280;5894;42.768;23.404;2022-09-20T07:12:55;95842.53;;;11.48;100.00
11676;BME280;5894;42.768;23.404;2022-09-20T07:15:25;95843.97;;;11.54;100.00
11676;BME280;5894;42.768;23.404;2022-09-20T07:17:54;95855.78;;;11.57;100.00
11676;BME280;5894;42.768;23.404;2022-09-20T07:20:21;95825.72;;;11.44;100.00
11676;BME280;5894;42.768;23.404;2022-09-20T07:22:48;95848.59;;;11.71;100.00
11676;BME280;5894;42.768;23.404;2022-09-20T07:25:15;95842.03;;;11.82;100.00
11676;BME280;5894;42.768;23.404;2022-09-20T07:27:43;95829.41;;;11.79;100.00
11676;BME280;5894;42.768;23.404;2022-09-20T07:30:12;95838.34;;;11.92;100.00
11676;BME280;5894;42.768;23.404;2022-09-20T07:32:39;95844.78;;;12.08;100.00
11676;BME280;5894;42.768;23.404;2022-09-20T07:35:08;95771.03;;;11.67;100.00
11676;BME280;5894;42.768;23.404;2022-09-20T07:37:36;95841.47;;;12.25;100.00
11676;BME280;5894;42.768;23.404;2022-09-20T07:40:07;95839.28;;;12.27;100.00
11676;BME280;5894;42.768;23.404;2022-09-20T07:42:34;95840.44;;;12.34;100.00
11676;BME280;5894;42.768;23.404;2022-09-20T07:45:01;95703.47;;;11.44;100.00
11676;BME280;5894;42.768;23.404;2022-09-20T07:47:29;95841.38;;;12.47;100.00
11676;BME280;5894;42.768;23.404;2022-09-20T07:49:57;95829.91;;;12.60;100.00
11676;BME280;5894;42.768;23.404;2022-09-20T07:52:25;95816.69;;;12.60;100.00
11676;BME280;5894;42.768;23.404;2022-09-20T07:54:52;95845.22;;;12.72;100.00
11676;BME280;5894;42.768;23.404;2022-09-20T07:57:19;95825.91;;;12.80;100.00
11676;BME280;5894;42.768;23.404;2022-09-20T08:03:40;95790.91;;;12.83;99.91
11676;BME280;5894;42.768;23.404;2022-09-20T08:06:09;95822.59;;;13.14;99.16
11676;BME280;5894;42.768;23.404;2022-09-20T08:08:40;95817.91;;;13.19;100.00
11676;BME280;5894;42.768;23.404;2022-09-20T08:11:08;95822.13;;;13.38;99.80
11676;BME280;5894;42.768;23.404;2022-09-20T08:13:36;95808.25;;;13.41;98.08
11676;BME280;5894;42.768;23.404;2022-09-20T08:16:04;95810.13;;;13.49;94.08
11676;BME280;5894;42.768;23.404;2022-09-20T08:18:32;95829.56;;;13.79;93.50
11676;BME280;5894;42.768;23.404;2022-09-20T08:21:02;95830.03;;;13.89;90.33
11676;BME280;5894;42.768;23.404;2022-09-20T08:23:33;95828.13;;;13.99;90.79
11676;BME280;5894;42.768;23.404;2022-09-20T08:26:02;95846.31;;;14.17;82.43
11676;BME280;5894;42.768;23.404;2022-09-20T08:28:29;95799.13;;;13.93;87.13
11676;BME280;5894;42.768;23.404;2022-09-20T08:31:00;95846.91;;;14.31;85.88
11676;BME280;5894;42.768;23.404;2022-09-20T08:33:28;95828.50;;;14.26;87.51
11676;BME280;5894;42.768;23.404;2022-09-20T08:35:54;95838.75;;;14.45;85.44
11676;BME280;5894;42.768;23.404;2022-09-20T08:38:21;95835.75;;;14.55;87.23
11676;BME280;5894;42.768;23.404;2022-09-20T08:40:52;95825.59;;;14.57;86.44
11676;BME280;5894;42.768;23.404;2022-09-20T08:43:25;95824.75;;;14.74;86.52
11676;BME280;5894;42.768;23.404;2022-09-20T08:45:54;95816.72;;;14.83;85.75
11676;BME280;5894;42.768;23.404;2022-09-20T08:48:25;95819.91;;;14.97;85.22
11676;BME280;5894;42.768;23.404;2022-09-20T08:50:53;95824.72;;;15.03;85.03
11676;BME280;5894;42.768;23.404;2022-09-20T08:53:20;95816.53;;;15.09;81.28
11676;BME280;5894;42.768;23.404;2022-09-20T08:55:47;95821.94;;;15.21;81.58
11676;BME280;5894;42.768;23.404;2022-09-20T08:58:14;95815.44;;;15.30;77.50
11676;BME280;5894;42.768;23.404;2022-09-20T09:00:45;95811.63;;;15.40;77.81
11676;BME280;5894;42.768;23.404;2022-09-20T09:03:13;95771.22;;;15.14;77.13
11676;BME280;5894;42.768;23.404;2022-09-20T09:05:43;95815.66;;;15.46;77.53
11676;BME280;5894;42.768;23.404;2022-09-20T09:08:12;95806.38;;;15.52;75.44
11676;BME280;5894;42.768;23.404;2022-09-20T09:10:42;95799.44;;;15.60;75.55
11676;BME280;5894;42.768;23.404;2022-09-20T09:13:19;95757.38;;;15.41;76.68
11676;BME280;5894;42.768;23.404;2022-09-20T09:15:53;95790.53;;;15.76;77.96
11676;BME280;5894;42.768;23.404;2022-09-20T09:18:27;95788.88;;;15.84;77.66
11676;BME280;5894;42.768;23.404;2022-09-20T09:20:56;95791.44;;;15.93;75.41
11676;BME280;5894;42.768;23.404;2022-09-20T09:23:26;95750.53;;;15.73;71.24
11676;BME280;5894;42.768;23.404;2022-09-20T09:25:54;95781.41;;;15.98;76.02
11676;BME280;5894;42.768;23.404;2022-09-20T09:28:23;95762.75;;;15.86;68.83
11676;BME280;5894;42.768;23.404;2022-09-20T09:31:11;95771.41;;;15.95;64.98
11676;BME280;5894;42.768;23.404;2022-09-20T09:33:42;95777.97;;;15.98;66.47
11676;BME280;5894;42.768;23.404;2022-09-20T09:36:13;95770.06;;;16.01;66.41
11676;BME280;5894;42.768;23.404;2022-09-20T09:38:42;95762.88;;;16.02;66.27
11676;BME280;5894;42.768;23.404;2022-09-20T09:41:21;95766.19;;;15.99;62.82
11676;BME280;5894;42.768;23.404;2022-09-20T09:44:00;95766.31;;;16.02;63.70
11676;BME280;5894;42.768;23.404;2022-09-20T09:46:32;95765.97;;;16.04;62.50
11676;BME280;5894;42.768;23.404;2022-09-20T09:49:08;95762.78;;;15.98;61.52
11676;BME280;5894;42.768;23.404;2022-09-20T09:51:35;95754.00;;;15.98;63.05
11676;BME280;5894;42.768;23.404;2022-09-20T09:54:03;95759.75;;;16.00;63.44
11676;BME280;5894;42.768;23.404;2022-09-20T09:56:47;95767.53;;;16.05;61.57
11676;BME280;5894;42.768;23.404;2022-09-20T09:59:40;95763.78;;;16.06;61.56
11676;BME280;5894;42.768;23.404;2022-09-20T10:02:26;95729.06;;;15.90;60.49
11676;BME280;5894;42.768;23.404;2022-09-20T10:05:00;95764.00;;;16.13;62.67
11676;BME280;5894;42.768;23.404;2022-09-20T10:07:37;95771.97;;;16.01;61.82
11676;BME280;5894;42.768;23.404;2022-09-20T10:10:13;95752.03;;;16.07;61.43
11676;BME280;5894;42.768;23.404;2022-09-20T10:12:56;95754.47;;;16.12;64.00
11676;BME280;5894;42.768;23.404;2022-09-20T10:15:33;95754.25;;;16.17;64.06
11676;BME280;5894;42.768;23.404;2022-09-20T10:18:18;95747.91;;;16.22;63.86
11676;BME280;5894;42.768;23.404;2022-09-20T10:21:03;95742.41;;;16.27;62.12
11676;BME280;5894;42.768;23.404;2022-09-20T10:23:46;95743.06;;;16.36;60.96
11676;BME280;5894;42.768;23.404;2022-09-20T10:26:49;95712.22;;;16.23;62.03
11676;BME280;5894;42.768;23.404;2022-09-20T10:29:28;95734.28;;;16.47;63.82
11676;BME280;5894;42.768;23.404;2022-09-20T10:32:04;95744.81;;;16.56;62.15
11676;BME280;5894;42.768;23.404;2022-09-20T10:34:57;95736.84;;;16.56;59.72
11676;BME280;5894;42.768;23.404;2022-09-20T10:37:32;95735.06;;;16.60;56.54
11676;BME280;5894;42.768;23.404;2022-09-20T10:40:05;95730.63;;;16.64;56.06
11676;BME280;5894;42.768;23.404;2022-09-20T10:42:41;95726.50;;;16.55;57.16
11676;BME280;5894;42.768;23.404;2022-09-20T10:45:32;95722.63;;;16.52;56.76
11676;BME280;5894;42.768;23.404;2022-09-20T10:48:04;95718.31;;;16.47;57.21
11676;BME280;5894;42.768;23.404;2022-09-20T10:50:39;95719.31;;;16.43;59.24
11676;BME280;5894;42.768;23.404;2022-09-20T10:53:18;95722.88;;;16.35;60.40
11676;BME280;5894;42.768;23.404;2022-09-20T10:55:58;95721.09;;;16.39;58.45
11676;BME280;5894;42.768;23.404;2022-09-20T10:58:47;95718.44;;;16.39;56.57
11676;BME280;5894;42.768;23.404;2022-09-20T11:01:21;95721.09;;;16.39;55.74
11676;BME280;5894;42.768;23.404;2022-09-20T11:07:16;95718.22;;;16.32;57.85
11676;BME280;5894;42.768;23.404;2022-09-20T11:09:48;95716.56;;;16.27;58.30
11676;BME280;5894;42.768;23.404;2022-09-20T11:12:26;95714.56;;;16.36;58.73
11676;BME280;5894;42.768;23.404;2022-09-20T11:15:02;95711.66;;;16.41;60.23
11676;BME280;5894;42.768;23.404;2022-09-20T11:17:33;95702.09;;;16.52;61.60
11676;BME280;5894;42.768;23.404;2022-09-20T11:20:06;95704.00;;;16.64;60.01
11676;BME280;5894;42.768;23.404;2022-09-20T11:22:41;95677.38;;;16.52;58.65
11676;BME280;5894;42.768;23.404;2022-09-20T11:25:14;95704.50;;;16.82;58.12
11676;BME280;5894;42.768;23.404;2022-09-20T11:27:45;95687.22;;;16.76;56.72
11676;BME280;5894;42.768;23.404;2022-09-20T11:30:15;95689.53;;;16.90;55.73
11676;BME280;5894;42.768;23.404;2022-09-20T11:32:47;95700.72;;;16.95;56.23
11676;BME280;5894;42.768;23.404;2022-09-20T11:35:26;95688.59;;;16.98;55.81
11676;BME280;5894;42.768;23.404;2022-09-20T11:38:03;95683.91;;;17.07;55.59
11676;BME280;5894;42.768;23.404;2022-09-20T11:40:37;95678.25;;;17.08;55.41
11676;BME280;5894;42.768;23.404;2022-09-20T11:43:08;95687.03;;;17.24;54.85
11676;BME280;5894;42.768;23.404;2022-09-20T11:45:38;95691.03;;;17.31;54.43
11676;BME280;5894;42.768;23.404;2022-09-20T11:48:09;95683.88;;;17.35;56.02
11676;BME280;5894;42.768;23.404;2022-09-20T11:51:03;95682.00;;;17.35;53.76
11676;BME280;5894;42.768;23.404;2022-09-20T11:53:54;95676.00;;;17.38;52.19
11676;BME280;5894;42.768;23.404;2022-09-20T11:56:27;95676.44;;;17.40;52.77
11676;BME280;5894;42.768;23.404;2022-09-20T11:58:57;95664.06;;;17.48;52.98
11676;BME280;5894;42.768;23.404;2022-09-20T12:01:27;95680.66;;;17.57;53.53
11676;BME280;5894;42.768;23.404;2022-09-20T12:03:58;95672.88;;;17.64;53.47
11676;BME280;5894;42.768;23.404;2022-09-20T12:06:29;95669.72;;;17.74;54.65
11676;BME280;5894;42.768;23.404;2022-09-20T12:09:00;95664.78;;;17.76;54.25
11676;BME280;5894;42.768;23.404;2022-09-20T12:11:30;95666.53;;;17.84;54.24
11676;BME280;5894;42.768;23.404;2022-09-20T12:14:02;95681.13;;;17.90;52.69
11676;BME280;5894;42.768;23.404;2022-09-20T12:16:39;95676.34;;;17.96;53.40
11676;BME280;5894;42.768;23.404;2022-09-20T12:19:09;95670.56;;;17.94;53.60
11676;BME280;5894;42.768;23.404;2022-09-20T12:22:16;95628.81;;;17.70;53.94
11676;BME280;5894;42.768;23.404;2022-09-20T12:27:57;95610.50;;;17.69;53.66
11676;BME280;5894;42.768;23.404;2022-09-20T12:30:24;95662.47;;;18.06;52.98
11676;BME280;5894;42.768;23.404;2022-09-20T12:32:56;95670.97;;;18.12;53.33
11676;BME280;5894;42.768;23.404;2022-09-20T12:38:45;95598.56;;;17.63;51.54
11676;BME280;5894;42.768;23.404;2022-09-20T12:41:15;95662.03;;;18.04;51.36
11676;BME280;5894;42.768;23.404;2022-09-20T12:44:18;95652.53;;;18.07;51.74
11676;BME280;5894;42.768;23.404;2022-09-20T12:46:52;95648.59;;;18.01;50.38
11676;BME280;5894;42.768;23.404;2022-09-20T12:49:37;95648.59;;;18.01;51.63
11676;BME280;5894;42.768;23.404;2022-09-20T12:52:25;95656.59;;;18.01;52.16
11676;BME280;5894;42.768;23.404;2022-09-20T12:55:23;95655.25;;;17.91;51.16
11676;BME280;5894;42.768;23.404;2022-09-20T12:57:52;95621.06;;;17.65;51.58
11676;BME280;5894;42.768;23.404;2022-09-20T13:00:31;95655.47;;;17.86;49.00
11676;BME280;5894;42.768;23.404;2022-09-20T13:03:10;95644.06;;;17.70;48.98
11676;BME280;5894;42.768;23.404;2022-09-20T13:05:39;95643.09;;;17.78;52.67
11676;BME280;5894;42.768;23.404;2022-09-20T13:08:14;95644.31;;;17.80;52.27
11676;BME280;5894;42.768;23.404;2022-09-20T13:10:44;95642.00;;;17.79;51.85
11676;BME280;5894;42.768;23.404;2022-09-20T13:13:28;95633.63;;;17.80;51.90
11676;BME280;5894;42.768;23.404;2022-09-20T13:15:58;95640.63;;;17.69;51.34
11676;BME280;5894;42.768;23.404;2022-09-20T13:18:30;95650.84;;;17.67;52.26
11676;BME280;5894;42.768;23.404;2022-09-20T13:20:57;95647.00;;;17.65;50.19
11676;BME280;5894;42.768;23.404;2022-09-20T13:23:37;95643.56;;;17.64;51.02
11676;BME280;5894;42.768;23.404;2022-09-20T13:26:09;95643.00;;;17.58;51.34
11676;BME280;5894;42.768;23.404;2022-09-20T13:28:43;95642.16;;;17.54;51.64
11676;BME280;5894;42.768;23.404;2022-09-20T13:31:32;95638.00;;;17.57;51.51
11676;BME280;5894;42.768;23.404;2022-09-20T13:34:16;95631.97;;;17.60;52.39
11676;BME280;5894;42.768;23.404;2022-09-20T13:36:44;95632.09;;;17.64;52.09
11676;BME280;5894;42.768;23.404;2022-09-20T13:39:22;95633.28;;;17.66;51.02
11676;BME280;5894;42.768;23.404;2022-09-20T13:41:50;95626.41;;;17.65;51.89
11676;BME280;5894;42.768;23.404;2022-09-20T13:44:18;95654.22;;;17.64;50.61
11676;BME280;5894;42.768;23.404;2022-09-20T13:46:46;95639.19;;;17.59;49.22
11676;BME280;5894;42.768;23.404;2022-09-20T13:49:15;95647.09;;;17.56;50.48
11676;BME280;5894;42.768;23.404;2022-09-20T13:51:46;95634.88;;;17.55;51.94
11676;BME280;5894;42.768;23.404;2022-09-20T13:54:18;95636.81;;;17.54;51.45
11676;BME280;5894;42.768;23.404;2022-09-20T13:56:46;95642.81;;;17.51;48.94
11676;BME280;5894;42.768;23.404;2022-09-20T13:59:13;95635.75;;;17.43;51.07
11676;BME280;5894;42.768;23.404;2022-09-20T14:01:44;95623.78;;;17.37;52.65
11676;BME280;5894;42.768;23.404;2022-09-20T14:04:17;95636.03;;;17.54;52.77
11676;BME280;5894;42.768;23.404;2022-09-20T14:06:46;95637.56;;;17.55;51.27
11676;BME280;5894;42.768;23.404;2022-09-20T14:09:20;95639.22;;;17.44;50.72
11676;BME280;5894;42.768;23.404;2022-09-20T14:11:51;95628.78;;;17.39;52.21
11676;BME280;5894;42.768;23.404;2022-09-20T14:14:20;95626.00;;;17.35;52.52
11676;BME280;5894;42.768;23.404;2022-09-20T14:16:47;95589.97;;;17.10;53.23
11676;BME280;5894;42.768;23.404;2022-09-20T14:19:18;95627.34;;;17.41;52.46
11676;BME280;5894;42.768;23.404;2022-09-20T14:21:46;95624.41;;;17.46;51.32
11676;BME280;5894;42.768;23.404;2022-09-20T14:24:28;95630.50;;;17.47;51.56
11676;BME280;5894;42.768;23.404;2022-09-20T14:27:04;95564.34;;;17.05;52.72
11676;BME280;5894;42.768;23.404;2022-09-20T14:29:38;95581.53;;;17.08;52.13
11676;BME280;5894;42.768;23.404;2022-09-20T14:32:10;95633.00;;;17.55;52.20
11676;BME280;5894;42.768;23.404;2022-09-20T14:34:52;95637.94;;;17.53;51.01